createdAt,value
2023-03-26T00:00:51.856Z,7.28
2023-03-26T00:03:18.303Z,7.24
2023-03-26T00:05:45.933Z,7.29
2023-03-26T00:08:12.384Z,7.32
2023-03-26T00:10:40.451Z,7.33
2023-03-26T00:13:08.247Z,7.22
2023-03-26T00:15:36.556Z,7.21
2023-03-26T00:18:03.287Z,7.12
2023-03-26T00:20:30.956Z,7.23
2023-03-26T00:22:57.285Z,7.16
2023-03-26T00:25:23.779Z,7.24
2023-03-26T00:27:50.585Z,7.15
2023-03-26T00:30:17.103Z,7.13
2023-03-26T00:32:43.913Z,7.12
2023-03-26T00:35:20.322Z,7.15
2023-03-26T00:37:46.738Z,7.08
2023-03-26T00:40:13.414Z,7.00
2023-03-26T00:42:39.750Z,7.04
2023-03-26T00:45:07.176Z,7.05
2023-03-26T00:47:34.515Z,7.10
2023-03-26T00:50:00.913Z,7.05
2023-03-26T00:52:27.309Z,6.99
2023-03-26T00:54:54.732Z,7.05
2023-03-26T00:57:32.984Z,6.99
2023-03-26T01:00:01.815Z,7.05
2023-03-26T01:02:28.231Z,7.01
2023-03-26T01:04:58.118Z,7.09
2023-03-26T01:07:26.607Z,7.13
2023-03-26T01:09:53.909Z,7.02
2023-03-26T01:12:23.059Z,7.09
2023-03-26T01:14:52.089Z,7.06
2023-03-26T01:17:18.612Z,6.96
2023-03-26T01:20:09.693Z,6.93
2023-03-26T01:22:36.785Z,7.05
2023-03-26T01:25:03.742Z,7.04
2023-03-26T01:27:36.987Z,7.05
2023-03-26T01:30:23.665Z,7.02
2023-03-26T01:33:22.345Z,7.02
2023-03-26T01:36:10.082Z,7.02
2023-03-26T01:38:45.209Z,7.07
2023-03-26T01:41:23.311Z,7.08
2023-03-26T01:44:15.955Z,7.05
2023-03-26T01:46:43.401Z,7.04
2023-03-26T01:49:09.806Z,7.13
2023-03-26T01:51:36.220Z,7.11
2023-03-26T01:54:06.051Z,7.12
2023-03-26T01:56:59.553Z,7.10
2023-03-26T01:59:52.571Z,7.04
2023-03-26T02:02:26.564Z,7.12
2023-03-26T02:05:12.144Z,7.02
2023-03-26T02:07:41.444Z,7.03
2023-03-26T02:10:15.641Z,6.98
2023-03-26T02:12:44.145Z,6.72
2023-03-26T02:15:11.954Z,6.73
2023-03-26T02:17:38.801Z,6.70
2023-03-26T02:20:09.437Z,6.81
2023-03-26T02:22:39.610Z,6.69
2023-03-26T02:25:08.454Z,6.76
2023-03-26T02:27:35.673Z,6.76
2023-03-26T02:30:02.592Z,6.70
2023-03-26T02:32:29.363Z,6.65
2023-03-26T02:34:55.874Z,6.70
2023-03-26T02:37:22.210Z,6.71
2023-03-26T02:39:48.537Z,6.60
2023-03-26T02:42:14.894Z,6.47
2023-03-26T02:44:41.239Z,6.44
2023-03-26T02:47:07.758Z,6.41
2023-03-26T02:49:34.136Z,6.34
2023-03-26T02:52:01.009Z,6.32
2023-03-26T02:54:27.319Z,6.44
2023-03-26T02:56:53.698Z,6.55
2023-03-26T02:59:20.023Z,6.60
2023-03-26T03:01:46.344Z,6.63
2023-03-26T03:04:13.157Z,6.63
2023-03-26T03:06:40.657Z,6.70
2023-03-26T03:09:08.146Z,6.69
2023-03-26T03:11:35.044Z,6.79
2023-03-26T03:14:01.403Z,6.68
2023-03-26T03:16:27.826Z,6.71
2023-03-26T03:18:54.901Z,6.69
2023-03-26T03:21:25.398Z,6.82
2023-03-26T03:23:51.822Z,6.83
2023-03-26T03:26:21.054Z,6.92
2023-03-26T03:28:49.060Z,6.97
2023-03-26T03:31:17.009Z,7.01
2023-03-26T03:33:44.324Z,7.03
2023-03-26T03:36:20.491Z,7.06
2023-03-26T03:38:48.634Z,7.16
2023-03-26T03:41:15.209Z,7.06
2023-03-26T03:43:41.514Z,7.01
2023-03-26T03:46:07.874Z,7.00
2023-03-26T03:48:34.223Z,7.00
2023-03-26T03:51:00.527Z,7.06
2023-03-26T03:53:26.867Z,7.14
2023-03-26T03:55:54.631Z,7.16
2023-03-26T03:58:26.249Z,7.12
2023-03-26T04:00:52.847Z,7.08
2023-03-26T04:03:20.009Z,7.06
2023-03-26T04:06:00.242Z,7.04
2023-03-26T04:08:26.553Z,7.12
2023-03-26T04:10:52.898Z,7.12
2023-03-26T04:13:19.220Z,7.08
2023-03-26T04:15:45.579Z,7.07
2023-03-26T04:18:11.916Z,7.14
2023-03-26T04:20:40.519Z,7.15
2023-03-26T04:23:06.878Z,7.21
2023-03-26T04:25:34.122Z,7.16
2023-03-26T04:28:06.625Z,7.17
2023-03-26T04:30:34.625Z,7.20
2023-03-26T04:33:04.092Z,7.11
2023-03-26T04:35:33.972Z,7.14
2023-03-26T04:38:04.425Z,7.07
2023-03-26T04:40:30.808Z,7.09
2023-03-26T04:42:57.141Z,7.02
2023-03-26T04:45:23.867Z,7.00
2023-03-26T04:47:50.855Z,7.01
2023-03-26T04:50:17.570Z,7.03
2023-03-26T04:52:45.333Z,7.02
2023-03-26T04:55:21.478Z,7.04
2023-03-26T04:57:53.424Z,7.05
2023-03-26T05:00:19.925Z,7.04
2023-03-26T05:02:46.522Z,7.07
2023-03-26T05:05:12.836Z,7.03
2023-03-26T05:07:39.137Z,7.10
2023-03-26T05:10:06.013Z,7.02
2023-03-26T05:12:32.345Z,7.10
2023-03-26T05:14:58.710Z,7.14
2023-03-26T05:17:25.978Z,7.19
2023-03-26T05:19:52.408Z,7.20
2023-03-26T05:22:19.317Z,7.18
2023-03-26T05:24:45.676Z,7.16
2023-03-26T05:27:15.910Z,7.25
2023-03-26T05:29:42.815Z,7.29
2023-03-26T05:32:10.053Z,7.36
2023-03-26T05:34:36.394Z,7.42
2023-03-26T05:37:04.082Z,7.35
2023-03-26T05:39:30.375Z,7.37
2023-03-26T05:41:56.688Z,7.35
2023-03-26T05:44:22.991Z,7.33
2023-03-26T05:46:49.315Z,7.39
2023-03-26T05:49:15.629Z,7.34
2023-03-26T05:51:41.983Z,7.35
2023-03-26T05:54:08.289Z,7.40
2023-03-26T05:56:34.701Z,7.44
2023-03-26T05:59:01.135Z,7.55
2023-03-26T06:01:27.470Z,7.58
2023-03-26T06:03:53.902Z,7.62
2023-03-26T06:06:20.926Z,7.64
2023-03-26T06:09:02.594Z,7.75
2023-03-26T06:11:30.454Z,7.77
2023-03-26T06:13:56.853Z,7.82
2023-03-26T06:16:27.161Z,7.79
2023-03-26T06:18:57.384Z,7.82
2023-03-26T06:21:25.614Z,7.88
2023-03-26T06:23:52.742Z,7.91
2023-03-26T06:26:19.312Z,7.93
2023-03-26T06:28:45.618Z,7.96
2023-03-26T06:31:12.048Z,7.97
2023-03-26T06:33:38.529Z,8.05
2023-03-26T06:36:05.489Z,8.19
2023-03-26T06:38:31.936Z,8.11
2023-03-26T06:41:05.711Z,8.07
2023-03-26T06:43:32.162Z,8.09
2023-03-26T06:45:58.508Z,8.15
2023-03-26T06:48:24.818Z,8.17
2023-03-26T06:50:51.392Z,8.27
2023-03-26T06:53:18.020Z,8.41
2023-03-26T06:55:44.485Z,8.43
2023-03-26T06:58:12.127Z,8.54
2023-03-26T07:00:38.901Z,8.65
2023-03-26T07:03:06.008Z,8.78
2023-03-26T07:05:32.376Z,8.88
2023-03-26T07:07:58.707Z,9.13
2023-03-26T07:10:25.350Z,9.25
2023-03-26T07:12:53.230Z,9.25
2023-03-26T07:15:20.046Z,9.24
2023-03-26T07:17:46.766Z,9.38
2023-03-26T07:20:13.181Z,9.40
2023-03-26T07:22:39.920Z,9.51
2023-03-26T07:25:07.141Z,9.71
2023-03-26T07:27:40.838Z,9.78
2023-03-26T07:30:20.156Z,9.99
2023-03-26T07:33:06.149Z,10.14
2023-03-26T07:35:41.376Z,9.94
2023-03-26T07:38:37.072Z,9.93
2023-03-26T07:41:12.445Z,10.16
2023-03-26T07:44:03.100Z,10.26
2023-03-26T07:46:31.672Z,10.41
2023-03-26T07:48:58.689Z,10.36
2023-03-26T07:51:25.806Z,10.42
2023-03-26T07:53:52.568Z,10.42
2023-03-26T07:56:37.713Z,10.47
2023-03-26T07:59:27.553Z,10.46
2023-03-26T08:02:32.327Z,10.69
2023-03-26T08:05:20.131Z,10.83
2023-03-26T08:08:00.855Z,10.66
2023-03-26T08:10:37.112Z,10.93
2023-03-26T08:13:26.579Z,10.93
2023-03-26T08:16:14.038Z,11.02
2023-03-26T08:18:59.310Z,10.92
2023-03-26T08:21:30.368Z,10.83
2023-03-26T08:24:13.501Z,11.00
2023-03-26T08:26:55.844Z,10.98
2023-03-26T08:29:29.512Z,11.11
2023-03-26T08:31:56.303Z,11.17
2023-03-26T08:34:23.065Z,11.35
2023-03-26T08:36:49.394Z,11.36
2023-03-26T08:39:15.702Z,11.18
2023-03-26T08:42:09.735Z,11.03
2023-03-26T08:45:25.393Z,10.97
2023-03-26T08:48:19.432Z,10.52
2023-03-26T08:51:17.542Z,10.73
2023-03-26T08:53:56.619Z,10.85
2023-03-26T08:56:31.800Z,10.97
2023-03-26T08:59:25.262Z,10.91
2023-03-26T09:02:25.752Z,10.91
2023-03-26T09:05:12.024Z,10.96
2023-03-26T09:08:00.154Z,10.71
2023-03-26T09:10:38.779Z,10.25
2023-03-26T09:13:35.787Z,9.94
2023-03-26T09:16:43.147Z,9.61
2023-03-26T09:19:34.108Z,9.18
2023-03-26T09:22:12.222Z,8.88
2023-03-26T09:24:38.476Z,8.36
2023-03-26T09:27:18.790Z,8.63
2023-03-26T09:30:20.888Z,9.14
2023-03-26T09:33:11.650Z,8.86
2023-03-26T09:36:05.768Z,8.50
2023-03-26T09:38:53.607Z,8.71
2023-03-26T09:41:35.336Z,9.10
2023-03-26T09:44:35.993Z,9.15
2023-03-26T09:47:36.654Z,9.32
2023-03-26T09:50:42.785Z,9.69
2023-03-26T09:53:23.635Z,9.54
2023-03-26T09:56:08.840Z,9.77
2023-03-26T09:58:48.304Z,9.55
2023-03-26T10:01:24.730Z,9.22
2023-03-26T10:04:06.381Z,9.21
2023-03-26T10:06:41.782Z,9.53
2023-03-26T10:09:19.614Z,8.82
2023-03-26T10:12:02.433Z,9.14
2023-03-26T10:14:41.134Z,9.79
2023-03-26T10:17:31.904Z,9.65
2023-03-26T10:20:04.092Z,9.89
2023-03-26T10:22:39.255Z,9.44
2023-03-26T10:25:23.552Z,9.31
2023-03-26T10:28:27.061Z,9.66
2023-03-26T10:31:17.350Z,9.05
2023-03-26T10:34:05.003Z,8.96
2023-03-26T10:36:35.596Z,8.59
2023-03-26T10:39:07.761Z,8.51
2023-03-26T10:41:55.932Z,9.27
2023-03-26T10:44:43.897Z,9.47
2023-03-26T10:47:25.362Z,9.13
2023-03-26T10:49:59.568Z,9.60
2023-03-26T10:52:34.786Z,10.18
2023-03-26T10:55:18.281Z,10.08
2023-03-26T10:57:50.657Z,10.07
2023-03-26T11:00:21.485Z,9.29
2023-03-26T11:03:25.292Z,9.61
2023-03-26T11:06:30.389Z,9.92
2023-03-26T11:09:10.777Z,9.29
2023-03-26T11:11:53.359Z,10.15
2023-03-26T11:14:34.848Z,9.72
2023-03-26T11:17:39.612Z,9.51
2023-03-26T11:20:13.240Z,9.39
2023-03-26T11:22:54.162Z,9.87
2023-03-26T11:25:29.809Z,9.24
2023-03-26T11:28:29.820Z,9.14
2023-03-26T11:31:08.567Z,9.70
2023-03-26T11:33:45.351Z,9.43
2023-03-26T11:36:43.300Z,8.94
2023-03-26T11:39:13.719Z,8.80
2023-03-26T11:41:40.056Z,8.84
2023-03-26T11:44:22.303Z,9.35
2023-03-26T11:46:52.329Z,8.63
2023-03-26T11:49:21.987Z,8.85
2023-03-26T11:51:48.861Z,8.91
2023-03-26T11:54:15.288Z,8.64
2023-03-26T11:57:05.355Z,8.76
2023-03-26T11:59:55.790Z,8.68
2023-03-26T12:02:28.054Z,8.67
2023-03-26T12:05:08.080Z,8.80
2023-03-26T12:07:35.383Z,8.67
2023-03-26T12:10:17.864Z,9.21
2023-03-26T12:12:47.498Z,8.98
2023-03-26T12:15:16.026Z,8.92
2023-03-26T12:17:42.689Z,9.07
2023-03-26T12:20:24.541Z,8.92
2023-03-26T12:23:33.530Z,9.04
2023-03-26T12:26:11.790Z,9.04
2023-03-26T12:28:44.820Z,8.93
2023-03-26T12:31:12.940Z,8.63
2023-03-26T12:33:39.456Z,8.75
2023-03-26T12:36:21.012Z,9.01
2023-03-26T12:40:06.536Z,8.68
2023-03-26T12:42:36.727Z,8.38
2023-03-26T12:44:48.226Z,8.57
2023-03-26T12:48:01.409Z,8.39
2023-03-26T12:50:14.326Z,8.68
2023-03-26T12:52:56.064Z,8.69
2023-03-26T12:55:52.969Z,8.64
2023-03-26T12:58:33.972Z,8.57
2023-03-26T13:01:14.046Z,8.64
2023-03-26T13:04:10.182Z,8.72
2023-03-26T13:06:59.072Z,9.07
2023-03-26T13:10:02.161Z,9.01
2023-03-26T13:12:52.700Z,8.37
2023-03-26T13:15:30.050Z,8.17
2023-03-26T13:18:24.834Z,8.88
2023-03-26T13:21:00.866Z,8.61
2023-03-26T13:23:43.778Z,8.61
2023-03-26T13:26:17.884Z,8.95
2023-03-26T13:29:14.718Z,9.09
2023-03-26T13:32:18.173Z,9.17
2023-03-26T13:35:10.588Z,8.91
2023-03-26T13:37:55.269Z,8.78
2023-03-26T13:40:42.311Z,8.42
2023-03-26T13:43:17.882Z,8.18
2023-03-26T13:45:53.397Z,8.31
2023-03-26T13:48:26.472Z,8.27
2023-03-26T13:51:17.239Z,8.26
2023-03-26T13:53:52.105Z,8.32
2023-03-26T13:56:20.575Z,8.56
2023-03-26T13:58:53.070Z,8.67
2023-03-26T14:01:22.477Z,8.74
2023-03-26T14:03:55.862Z,8.64
2023-03-26T14:07:15.763Z,8.35
2023-03-26T14:10:08.463Z,8.08
2023-03-26T14:12:43.273Z,8.29
2023-03-26T14:15:24.221Z,8.33
2023-03-26T14:18:03.140Z,8.20
2023-03-26T14:21:04.838Z,7.76
2023-03-26T14:23:43.219Z,7.51
2023-03-26T14:26:19.470Z,7.27
2023-03-26T14:28:54.923Z,7.16
2023-03-26T14:31:47.775Z,7.28
2023-03-26T14:34:45.653Z,7.00
2023-03-26T14:37:42.616Z,7.06
2023-03-26T14:40:30.802Z,6.82
2023-03-26T14:43:09.373Z,6.88
2023-03-26T14:46:03.141Z,6.90
2023-03-26T14:48:53.918Z,6.86
2023-03-26T14:52:01.629Z,6.85
2023-03-26T14:54:32.088Z,6.60
2023-03-26T14:57:29.330Z,6.73
2023-03-26T15:00:20.063Z,6.74
2023-03-26T15:03:24.864Z,6.83
2023-03-26T15:06:11.653Z,6.69
2023-03-26T15:09:10.458Z,6.59
2023-03-26T15:12:14.510Z,6.41
2023-03-26T15:14:56.522Z,6.32
2023-03-26T15:17:31.936Z,6.33
2023-03-26T15:20:34.925Z,6.30
2023-03-26T15:23:25.826Z,6.21
2023-03-26T15:26:27.957Z,6.12
2023-03-26T15:29:21.716Z,6.23
2023-03-26T15:32:19.692Z,6.30
2023-03-26T15:35:16.564Z,6.36
2023-03-26T15:37:57.170Z,6.42
2023-03-26T15:40:47.617Z,6.44
2023-03-26T15:43:16.586Z,6.36
2023-03-26T15:45:49.180Z,6.34
2023-03-26T15:48:34.231Z,6.25
2023-03-26T15:51:31.886Z,6.41
2023-03-26T15:54:21.907Z,6.29
2023-03-26T15:56:54.302Z,6.52
2023-03-26T15:59:20.558Z,6.50
2023-03-26T16:02:00.393Z,6.37
2023-03-26T16:04:51.800Z,6.50
2023-03-26T16:08:09.745Z,6.51
2023-03-26T16:10:55.762Z,6.41
2023-03-26T16:13:22.185Z,6.43
2023-03-26T16:16:20.055Z,6.43
2023-03-26T16:19:18.524Z,6.44
2023-03-26T16:22:07.344Z,6.46
2023-03-26T16:24:36.522Z,6.57
2023-03-26T16:27:15.009Z,6.55
2023-03-26T16:30:00.018Z,6.39
2023-03-26T16:32:34.597Z,6.25
2023-03-26T16:35:34.816Z,6.28
2023-03-26T16:38:13.585Z,6.25
2023-03-26T16:40:58.314Z,6.23
2023-03-26T16:43:38.343Z,6.24
2023-03-26T16:46:42.445Z,6.22
2023-03-26T16:50:08.469Z,6.21
2023-03-26T16:52:49.992Z,6.21
2023-03-26T16:55:27.932Z,6.14
2023-03-26T16:58:29.292Z,6.13
2023-03-26T17:01:11.852Z,6.11
2023-03-26T17:03:50.983Z,6.10
2023-03-26T17:06:17.432Z,6.06
2023-03-26T17:08:58.371Z,6.04
2023-03-26T17:11:56.562Z,6.05
2023-03-26T17:14:44.346Z,6.11
2023-03-26T17:17:25.678Z,6.05
2023-03-26T17:20:07.385Z,5.97
2023-03-26T17:22:43.603Z,6.00
2023-03-26T17:25:34.544Z,6.01
2023-03-26T17:28:28.424Z,6.00
2023-03-26T17:31:18.337Z,5.99
2023-03-26T17:33:45.088Z,6.01
2023-03-26T17:36:11.465Z,5.99
2023-03-26T17:38:37.760Z,5.87
2023-03-26T17:41:05.461Z,5.85
2023-03-26T17:43:48.356Z,5.87
2023-03-26T17:46:32.211Z,5.74
2023-03-26T17:49:07.519Z,5.68
2023-03-26T17:51:57.938Z,5.64
2023-03-26T17:54:30.865Z,5.68
2023-03-26T17:57:03.584Z,5.57
2023-03-26T17:59:32.404Z,5.54
2023-03-26T18:02:02.684Z,5.57
2023-03-26T18:04:42.130Z,5.51
2023-03-26T18:07:46.078Z,5.36
2023-03-26T18:10:43.545Z,5.27
2023-03-26T18:13:26.881Z,5.28
2023-03-26T18:16:16.467Z,5.28
2023-03-26T18:18:50.778Z,5.19
2023-03-26T18:21:27.813Z,5.21
2023-03-26T18:23:54.201Z,5.16
2023-03-26T18:26:36.168Z,5.19
2023-03-26T18:29:16.338Z,4.94
2023-03-26T18:31:43.446Z,4.90
2023-03-26T18:34:17.904Z,4.91
2023-03-26T18:36:57.433Z,4.94
2023-03-26T18:39:23.880Z,5.03
2023-03-26T18:41:50.335Z,4.88
2023-03-26T18:44:18.571Z,4.72
2023-03-26T18:46:45.708Z,4.57
2023-03-26T18:49:14.595Z,4.46
2023-03-26T18:51:54.162Z,4.35
2023-03-26T18:54:23.803Z,4.30
2023-03-26T18:56:50.329Z,4.25
2023-03-26T18:59:34.260Z,4.21
2023-03-26T19:02:10.119Z,4.10
2023-03-26T19:04:36.723Z,3.99
2023-03-26T19:07:08.624Z,3.99
2023-03-26T19:09:35.280Z,3.89
2023-03-26T19:12:07.989Z,3.83
2023-03-26T19:14:50.182Z,3.72
2023-03-26T19:17:16.658Z,3.68
2023-03-26T19:19:43.143Z,3.66
2023-03-26T19:22:11.152Z,3.61
2023-03-26T19:24:38.158Z,3.58
2023-03-26T19:27:04.737Z,3.53
2023-03-26T19:29:35.740Z,3.52
2023-03-26T19:32:35.637Z,3.44
2023-03-26T19:35:01.995Z,3.38
2023-03-26T19:37:29.275Z,3.29
2023-03-26T19:40:02.759Z,3.27
2023-03-26T19:42:44.031Z,3.27
2023-03-26T19:45:17.958Z,3.19
2023-03-26T19:47:52.166Z,3.21
2023-03-26T19:50:27.439Z,3.10
2023-03-26T19:53:16.853Z,3.05
2023-03-26T19:55:59.310Z,2.99
2023-03-26T19:58:27.175Z,2.95
2023-03-26T20:00:53.695Z,2.96
2023-03-26T20:03:40.389Z,2.90
2023-03-26T20:06:10.162Z,2.91
2023-03-26T20:08:36.464Z,2.85
2023-03-26T20:11:02.818Z,2.79
2023-03-26T20:13:29.141Z,2.80
2023-03-26T20:16:06.596Z,2.74
2023-03-26T20:18:34.435Z,2.69
2023-03-26T20:21:00.962Z,2.70
2023-03-26T20:23:27.295Z,2.67
2023-03-26T20:25:53.717Z,2.66
2023-03-26T20:28:20.526Z,2.64
2023-03-26T20:30:48.536Z,2.58
2023-03-26T20:33:23.970Z,2.60
2023-03-26T20:35:50.296Z,2.55
2023-03-26T20:38:18.205Z,2.53
2023-03-26T20:40:44.701Z,2.51
2023-03-26T20:43:13.151Z,2.49
2023-03-26T20:45:40.093Z,2.47
2023-03-26T20:48:06.718Z,2.45
2023-03-26T20:50:35.811Z,2.43
2023-03-26T20:53:02.389Z,2.44
2023-03-26T20:55:28.902Z,2.41
2023-03-26T20:57:55.212Z,2.39
2023-03-26T21:00:21.722Z,2.39
2023-03-26T21:02:49.655Z,2.35
2023-03-26T21:05:16.121Z,2.30
2023-03-26T21:07:42.772Z,2.29
2023-03-26T21:10:13.727Z,2.24
2023-03-26T21:12:51.252Z,2.23
2023-03-26T21:15:23.540Z,2.25
2023-03-26T21:17:51.243Z,2.24
2023-03-26T21:20:18.957Z,2.24
2023-03-26T21:23:10.065Z,2.22
2023-03-26T21:25:48.229Z,2.22
2023-03-26T21:28:41.913Z,2.18
2023-03-26T21:31:14.632Z,2.19
2023-03-26T21:33:41.026Z,2.17
2023-03-26T21:36:08.050Z,2.15
2023-03-26T21:38:34.691Z,2.14
2023-03-26T21:41:01.713Z,2.16
2023-03-26T21:43:28.175Z,2.12
2023-03-26T21:45:55.184Z,2.09
2023-03-26T21:48:21.852Z,2.12
2023-03-26T21:50:48.405Z,2.04
2023-03-26T21:53:16.010Z,2.04
2023-03-26T21:56:16.510Z,2.06
2023-03-26T21:59:09.969Z,2.03
2023-03-26T22:01:55.105Z,2.03
2023-03-26T22:04:21.328Z,2.01
2023-03-26T22:06:56.692Z,2.01
2023-03-26T22:09:33.953Z,1.99
2023-03-26T22:12:02.541Z,1.94
2023-03-26T22:14:28.910Z,1.92
2023-03-26T22:16:55.413Z,1.87
2023-03-26T22:19:21.732Z,1.85
2023-03-26T22:21:48.178Z,1.84
2023-03-26T22:24:14.473Z,1.81
2023-03-26T22:26:40.905Z,1.81
2023-03-26T22:29:07.290Z,1.78
2023-03-26T22:31:33.691Z,1.76
2023-03-26T22:34:00.116Z,1.72
2023-03-26T22:36:26.464Z,1.70
2023-03-26T22:38:53.448Z,1.65
2023-03-26T22:41:19.805Z,1.62
2023-03-26T22:43:46.117Z,1.59
2023-03-26T22:46:12.447Z,1.60
2023-03-26T22:48:38.749Z,1.57
2023-03-26T22:51:07.401Z,1.58
2023-03-26T22:53:34.752Z,1.55
2023-03-26T22:56:01.384Z,1.54
2023-03-26T22:58:28.176Z,1.52
2023-03-26T23:01:09.248Z,1.50
2023-03-26T23:03:36.301Z,1.48
2023-03-26T23:06:06.726Z,1.46
2023-03-26T23:08:34.843Z,1.40
2023-03-26T23:11:01.648Z,1.44
2023-03-26T23:13:28.005Z,1.47
2023-03-26T23:15:55.757Z,1.46
2023-03-26T23:18:23.583Z,1.44
2023-03-26T23:20:57.395Z,1.39
2023-03-26T23:23:26.710Z,1.40
2023-03-26T23:25:56.992Z,1.42
2023-03-26T23:28:23.323Z,1.39
2023-03-26T23:30:51.401Z,1.37
2023-03-26T23:33:21.786Z,1.37
2023-03-26T23:35:49.826Z,1.36
2023-03-26T23:38:16.679Z,1.34
2023-03-26T23:40:44.428Z,1.38
2023-03-26T23:43:25.081Z,1.35
2023-03-26T23:45:52.161Z,1.32
2023-03-26T23:48:21.144Z,1.29
2023-03-26T23:50:48.724Z,1.27
2023-03-26T23:53:15.151Z,1.23
2023-03-26T23:55:41.464Z,1.27
2023-03-26T23:58:07.791Z,1.23
